Time;durP1;ratioP1;P1;durP2;ratioP2;P2;SDS_P1;SDS_P2;PMS_P1;PMS_P2;Temp;Humidity;BMP_temperature;BMP_pressure;BME280_temperature;BME280_humidity;BME280_pressure;Samples;Min_cycle;Max_cycle;Signal;HPM_P1;HPM_P2
2023/12/31 00:02:24;;;;;;;5.43;2.63;;;9.40;51.60;;;;;;4993613;28;20124;-61
2023/12/31 00:04:52;;;;;;;4.05;1.85;;;9.50;51.60;;;;;;4995877;28;20058;-61
2023/12/31 00:07:20;;;;;;;7.38;2.40;;;9.50;51.60;;;;;;4992171;28;20085;-60
2023/12/31 00:09:48;;;;;;;4.45;1.83;;;9.50;51.50;;;;;;4990853;28;20116;-58
2023/12/31 00:12:17;;;;;;;3.63;1.88;;;9.50;51.50;;;;;;4994255;28;20726;-61
2023/12/31 00:14:45;;;;;;;1.88;1.60;;;9.50;51.50;;;;;;4993879;28;20064;-61
2023/12/31 00:17:16;;;;;;;3.65;1.65;;;9.50;51.50;;;;;;4990751;28;20544;-60
2023/12/31 00:19:45;;;;;;;3.75;2.22;;;9.50;51.50;;;;;;4992837;28;20037;-61
2023/12/31 00:22:13;;;;;;;3.80;1.88;;;9.50;51.50;;;;;;4992412;28;20411;-60
2023/12/31 00:24:41;;;;;;;3.30;1.75;;;9.40;51.50;;;;;;4992946;28;20113;-60
2023/12/31 00:27:10;;;;;;;4.53;2.75;;;9.40;51.60;;;;;;4992143;28;20073;-60
2023/12/31 00:29:38;;;;;;;6.07;2.25;;;9.40;51.50;;;;;;4995737;28;20049;-62
2023/12/31 00:32:07;;;;;;;2.53;1.52;;;9.30;51.50;;;;;;4982908;28;20069;-60
2023/12/31 00:34:37;;;;;;;3.83;1.70;;;9.30;51.60;;;;;;4997365;28;20076;-59
2023/12/31 00:37:05;;;;;;;4.85;1.73;;;9.20;51.60;;;;;;4987974;28;20065;-60
2023/12/31 00:39:34;;;;;;;1.70;1.33;;;9.20;51.60;;;;;;4998400;28;20052;-60
2023/12/31 00:42:04;;;;;;;2.95;1.70;;;9.20;51.60;;;;;;4990073;28;20123;-60
2023/12/31 00:44:32;;;;;;;4.28;2.22;;;9.10;51.60;;;;;;4994880;28;20061;-60
2023/12/31 00:47:01;;;;;;;4.00;2.10;;;9.10;51.60;;;;;;4993081;28;20058;-59
2023/12/31 00:49:30;;;;;;;6.63;2.33;;;9.00;51.60;;;;;;4996426;28;20137;-60
2023/12/31 00:52:00;;;;;;;2.95;1.77;;;9.00;51.70;;;;;;4986575;28;20057;-59
2023/12/31 00:54:29;;;;;;;2.50;1.58;;;9.00;51.80;;;;;;4995474;28;20463;-60
2023/12/31 00:56:57;;;;;;;3.80;1.67;;;8.90;51.80;;;;;;4994984;28;20037;-60
2023/12/31 00:59:24;;;;;;;2.20;1.80;;;8.90;51.80;;;;;;5007627;28;20070;-59
2023/12/31 01:01:54;;;;;;;1.85;1.65;;;8.90;51.80;;;;;;4988366;28;20165;-61
2023/12/31 01:04:23;;;;;;;2.42;1.40;;;8.90;51.90;;;;;;4997275;28;20153;-60
2023/12/31 01:06:51;;;;;;;3.13;1.58;;;8.90;51.80;;;;;;4994411;28;20120;-61
2023/12/31 01:09:21;;;;;;;2.92;1.58;;;8.80;51.90;;;;;;4992521;28;20045;-60
2023/12/31 01:11:49;;;;;;;5.18;1.92;;;8.80;52.00;;;;;;4994379;28;20138;-59
2023/12/31 01:14:18;;;;;;;3.38;1.77;;;8.80;52.00;;;;;;4991397;28;20137;-60
2023/12/31 01:16:46;;;;;;;4.03;1.77;;;8.80;51.90;;;;;;4996778;28;20056;-60
2023/12/31 01:19:16;;;;;;;6.82;2.00;;;8.80;52.00;;;;;;4996272;28;20053;-60
2023/12/31 01:21:44;;;;;;;1.23;1.20;;;8.80;52.60;;;;;;5001214;28;20112;-60
2023/12/31 01:24:13;;;;;;;1.27;1.02;;;8.80;52.00;;;;;;4989373;28;20064;-61
2023/12/31 01:26:43;;;;;;;1.10;1.10;;;8.80;52.00;;;;;;4995874;28;20054;-63
2023/12/31 01:29:11;;;;;;;4.88;2.20;;;8.80;52.70;;;;;;4997611;28;20140;-60
2023/12/31 01:31:39;;;;;;;2.35;1.83;;;8.80;52.20;;;;;;5004419;28;20054;-62
2023/12/31 01:34:07;;;;;;;2.03;1.50;;;8.80;52.80;;;;;;5020385;28;20885;-59
2023/12/31 01:36:36;;;;;;;6.47;1.88;;;8.80;52.10;;;;;;5004397;28;20045;-60
2023/12/31 01:39:07;;;;;;;2.47;1.13;;;8.80;52.20;;;;;;5008033;28;20231;-59
2023/12/31 01:41:35;;;;;;;3.38;2.00;;;8.80;52.20;;;;;;4996532;28;20050;-63
2023/12/31 01:44:07;;;;;;;4.50;1.92;;;8.90;52.30;;;;;;4990840;28;20519;-58
2023/12/31 01:46:36;;;;;;;1.35;1.25;;;8.90;52.30;;;;;;4998033;28;20054;-60
2023/12/31 01:49:05;;;;;;;2.80;1.40;;;9.00;52.20;;;;;;4998645;28;20050;-61
2023/12/31 01:51:33;;;;;;;2.42;1.42;;;9.00;52.20;;;;;;5008220;28;20527;-60
2023/12/31 01:54:04;;;;;;;2.92;2.05;;;9.00;52.10;;;;;;4989924;28;20050;-59
2023/12/31 01:56:36;;;;;;;2.25;1.38;;;9.00;52.20;;;;;;4994108;28;20046;-60
2023/12/31 01:59:07;;;;;;;3.00;2.17;;;9.00;52.10;;;;;;4998159;28;20120;-59
2023/12/31 02:01:36;;;;;;;4.13;1.98;;;9.00;52.10;;;;;;5003929;28;20050;-60
2023/12/31 02:04:06;;;;;;;4.32;1.52;;;9.00;52.10;;;;;;4993825;28;20065;-60
2023/12/31 02:06:35;;;;;;;2.90;1.75;;;9.00;52.10;;;;;;4999155;28;20068;-58
2023/12/31 02:09:03;;;;;;;2.50;1.73;;;9.00;52.10;;;;;;4991589;28;20084;-59
2023/12/31 02:11:31;;;;;;;3.38;1.67;;;9.00;52.10;;;;;;4999610;28;20074;-60
2023/12/31 02:14:00;;;;;;;2.95;2.17;;;9.00;52.10;;;;;;4996448;28;20467;-60
2023/12/31 02:16:30;;;;;;;2.53;1.67;;;8.90;52.10;;;;;;4998844;28;20057;-59
2023/12/31 02:18:58;;;;;;;7.20;1.60;;;8.90;52.10;;;;;;4998458;28;20488;-60
2023/12/31 02:21:27;;;;;;;2.85;1.17;;;8.90;52.20;;;;;;4995647;28;20046;-59
2023/12/31 02:23:56;;;;;;;3.70;2.08;;;8.80;52.30;;;;;;4995198;28;20492;-59
2023/12/31 02:26:26;;;;;;;5.70;1.77;;;8.80;52.20;;;;;;4992523;28;20065;-59
2023/12/31 02:28:56;;;;;;;2.50;1.58;;;8.80;52.20;;;;;;5000012;28;20104;-59
2023/12/31 02:31:24;;;;;;;5.85;1.75;;;8.80;52.20;;;;;;4996005;28;20412;-60
2023/12/31 02:33:54;;;;;;;2.75;1.80;;;8.80;52.20;;;;;;4992740;28;20104;-59
2023/12/31 02:36:22;;;;;;;1.90;1.55;;;8.80;52.10;;;;;;5001077;28;20050;-60
2023/12/31 02:38:51;;;;;;;1.17;1.08;;;8.80;52.20;;;;;;4995723;28;20056;-58
2023/12/31 02:41:19;;;;;;;8.13;2.22;;;8.80;52.80;;;;;;4998745;28;20133;-58
2023/12/31 02:43:49;;;;;;;1.33;1.23;;;8.80;52.20;;;;;;5028894;28;20042;-59
2023/12/31 02:46:17;;;;;;;2.83;1.50;;;8.80;52.30;;;;;;5008561;28;20054;-59
2023/12/31 02:48:46;;;;;;;2.17;1.63;;;8.80;52.20;;;;;;4997005;28;20069;-60
2023/12/31 02:51:14;;;;;;;2.15;1.75;;;8.80;52.20;;;;;;4993025;28;20060;-60
2023/12/31 02:53:43;;;;;;;1.52;1.35;;;8.80;52.30;;;;;;4999100;28;20053;-59
2023/12/31 02:56:12;;;;;;;1.85;1.60;;;8.80;52.20;;;;;;4989464;28;20080;-59
2023/12/31 02:58:40;;;;;;;5.13;1.60;;;8.80;52.10;;;;;;5005343;28;20049;-58
2023/12/31 03:01:10;;;;;;;2.85;1.92;;;8.80;52.10;;;;;;4999855;28;20049;-59
2023/12/31 03:03:38;;;;;;;2.45;1.60;;;8.80;52.00;;;;;;4999025;28;20140;-59
2023/12/31 03:06:07;;;;;;;2.10;1.35;;;8.80;52.00;;;;;;4992973;28;20101;-59
2023/12/31 03:08:35;;;;;;;7.07;1.40;;;8.80;52.10;;;;;;4998131;28;20056;-60
2023/12/31 03:11:03;;;;;;;2.97;1.95;;;8.80;52.20;;;;;;4998963;28;20069;-60
2023/12/31 03:13:32;;;;;;;5.32;2.13;;;8.70;52.20;;;;;;4991803;28;20128;-60
2023/12/31 03:16:04;;;;;;;2.40;1.45;;;8.70;52.20;;;;;;4991987;28;20097;-59
2023/12/31 03:18:34;;;;;;;2.60;1.45;;;8.70;52.30;;;;;;5005175;28;20589;-60
2023/12/31 03:21:03;;;;;;;1.92;1.50;;;8.60;52.20;;;;;;4996611;28;20060;-58
2023/12/31 03:23:31;;;;;;;3.55;1.60;;;8.60;52.40;;;;;;5000730;28;20064;-59
2023/12/31 03:26:00;;;;;;;3.88;1.88;;;8.60;52.40;;;;;;4986967;28;20481;-59
2023/12/31 03:28:29;;;;;;;1.40;1.00;;;8.60;53.00;;;;;;4995415;28;20089;-64
2023/12/31 03:30:57;;;;;;;2.13;1.35;;;8.60;52.40;;;;;;4994598;28;20809;-60
2023/12/31 03:33:27;;;;;;;2.15;1.48;;;8.60;52.30;;;;;;4996463;28;20057;-60
2023/12/31 03:35:57;;;;;;;2.15;1.48;;;8.60;52.30;;;;;;4995794;28;20054;-58
2023/12/31 03:38:26;;;;;;;3.60;1.77;;;8.60;52.30;;;;;;5001896;28;20066;-59
2023/12/31 03:40:54;;;;;;;2.00;1.58;;;8.60;52.40;;;;;;4998714;28;20698;-59
2023/12/31 03:43:23;;;;;;;5.97;1.75;;;8.50;52.30;;;;;;5006381;28;20065;-59
2023/12/31 03:45:51;;;;;;;1.27;1.17;;;8.60;52.30;;;;;;4989049;28;20542;-56
2023/12/31 03:48:20;;;;;;;3.55;1.88;;;8.60;52.30;;;;;;4994337;28;20053;-58
2023/12/31 03:50:49;;;;;;;2.20;1.63;;;8.60;52.20;;;;;;5021767;28;20217;-59
2023/12/31 03:53:19;;;;;;;4.95;1.92;;;8.60;52.20;;;;;;4994729;28;20046;-58
2023/12/31 03:55:47;;;;;;;4.50;1.58;;;8.60;52.10;;;;;;4995810;28;20037;-60
2023/12/31 03:58:16;;;;;;;2.95;1.27;;;8.60;52.20;;;;;;4992072;28;20058;-61
2023/12/31 04:00:44;;;;;;;3.55;1.52;;;8.50;52.20;;;;;;4996532;28;20663;-59
2023/12/31 04:03:12;;;;;;;4.07;2.00;;;8.50;52.30;;;;;;4997692;28;20104;-61
2023/12/31 04:05:41;;;;;;;2.13;1.50;;;8.50;52.40;;;;;;4997065;28;20758;-61
2023/12/31 04:08:10;;;;;;;1.83;1.45;;;8.50;52.40;;;;;;5022660;28;20762;-60
2023/12/31 04:10:40;;;;;;;2.50;1.35;;;8.50;52.30;;;;;;4997273;28;20115;-60
2023/12/31 04:13:08;;;;;;;1.85;1.23;;;8.50;52.30;;;;;;4993743;28;20153;-58
2023/12/31 04:15:36;;;;;;;12.85;3.55;;;8.50;52.30;;;;;;4999082;28;20049;-60
2023/12/31 04:18:05;;;;;;;3.20;2.10;;;8.50;52.30;;;;;;4987852;28;20062;-59
2023/12/31 04:20:33;;;;;;;1.98;1.33;;;8.50;52.30;;;;;;5028027;28;20120;-62
2023/12/31 04:23:02;;;;;;;3.42;1.80;;;8.50;52.30;;;;;;4999970;28;20073;-59
2023/12/31 04:25:30;;;;;;;1.42;1.33;;;8.50;52.30;;;;;;5000095;28;20060;-58
2023/12/31 04:28:00;;;;;;;2.00;1.33;;;8.50;52.20;;;;;;4987419;28;20578;-59
2023/12/31 04:30:29;;;;;;;2.17;1.50;;;8.40;52.20;;;;;;5002440;28;20674;-60
2023/12/31 04:32:57;;;;;;;1.70;1.40;;;8.40;52.20;;;;;;4991132;28;20064;-59
2023/12/31 04:35:25;;;;;;;3.78;1.67;;;8.40;52.20;;;;;;4998446;28;20054;-59
2023/12/31 04:37:53;;;;;;;3.05;1.98;;;8.40;52.10;;;;;;4990357;28;20045;-59
2023/12/31 04:40:21;;;;;;;2.03;1.33;;;8.40;52.20;;;;;;4995111;28;20081;-59
2023/12/31 04:42:50;;;;;;;2.28;1.70;;;8.40;52.20;;;;;;4994643;28;20524;-60
2023/12/31 04:45:19;;;;;;;1.60;1.48;;;8.30;52.10;;;;;;4999093;28;20065;-59
2023/12/31 04:47:48;;;;;;;2.53;1.40;;;8.30;52.30;;;;;;5001109;28;20056;-59
2023/12/31 04:50:16;;;;;;;2.90;2.10;;;8.30;52.40;;;;;;4989543;28;20429;-59
2023/12/31 04:52:45;;;;;;;1.85;1.42;;;8.20;52.30;;;;;;4995198;28;20089;-59
2023/12/31 04:55:13;;;;;;;2.17;1.52;;;8.20;52.40;;;;;;4995068;28;20183;-57
2023/12/31 04:57:41;;;;;;;2.17;1.48;;;8.20;52.90;;;;;;4993227;28;20056;-59
2023/12/31 05:00:11;;;;;;;6.10;1.25;;;8.20;52.40;;;;;;4987807;28;20797;-59
2023/12/31 05:02:41;;;;;;;3.25;1.70;;;8.20;52.40;;;;;;4990304;28;20515;-59
2023/12/31 05:05:09;;;;;;;3.85;1.85;;;8.20;52.40;;;;;;5002269;28;20057;-59
2023/12/31 05:07:38;;;;;;;1.55;1.40;;;8.20;52.40;;;;;;5002216;28;20061;-59
2023/12/31 05:10:07;;;;;;;4.25;1.60;;;8.20;52.40;;;;;;4990602;28;20711;-59
2023/12/31 05:12:35;;;;;;;4.78;1.95;;;8.20;52.30;;;;;;5002204;28;20069;-59
2023/12/31 05:15:04;;;;;;;1.30;1.20;;;8.20;52.30;;;;;;5000591;28;20081;-59
2023/12/31 05:17:32;;;;;;;7.90;3.08;;;8.20;52.30;;;;;;5002799;28;20081;-59
2023/12/31 05:20:02;;;;;;;1.48;1.25;;;8.20;52.30;;;;;;4996454;28;20065;-60
2023/12/31 05:22:30;;;;;;;1.95;1.17;;;8.20;52.30;;;;;;4999173;28;20078;-60
2023/12/31 05:24:58;;;;;;;2.47;1.52;;;8.20;52.30;;;;;;4998765;28;20053;-59
2023/12/31 05:27:26;;;;;;;9.38;2.38;;;8.20;52.30;;;;;;5005004;28;20049;-59
2023/12/31 05:29:56;;;;;;;1.45;1.23;;;8.20;52.40;;;;;;4992686;28;20647;-59
2023/12/31 05:32:24;;;;;;;2.60;1.50;;;8.10;52.30;;;;;;5003061;28;20065;-59
2023/12/31 05:34:52;;;;;;;1.75;1.38;;;8.10;52.50;;;;;;5000185;28;20065;-59
2023/12/31 05:37:22;;;;;;;2.05;1.60;;;8.10;53.10;;;;;;5000147;28;20064;-59
2023/12/31 05:39:50;;;;;;;1.92;1.38;;;8.10;52.60;;;;;;4997605;28;20058;-59
2023/12/31 05:42:18;;;;;;;3.47;1.70;;;8.10;52.70;;;;;;4992792;28;21201;-59
2023/12/31 05:44:46;;;;;;;1.90;1.30;;;8.00;52.60;;;;;;5002005;28;20077;-59
2023/12/31 05:47:14;;;;;;;1.90;1.25;;;8.10;52.60;;;;;;4999802;28;20058;-58
2023/12/31 05:50:03;;;;;;;1.08;0.98;;;8.10;52.60;;;;;;4987915;28;20061;-59
2023/12/31 05:52:33;;;;;;;3.00;1.70;;;8.10;52.60;;;;;;4999642;28;20096;-59
2023/12/31 05:55:01;;;;;;;3.38;1.67;;;8.10;52.50;;;;;;4998180;28;20084;-59
2023/12/31 05:57:29;;;;;;;2.20;1.52;;;8.10;52.50;;;;;;5001013;28;20088;-58
2023/12/31 05:59:57;;;;;;;5.88;1.38;;;8.10;52.40;;;;;;4992471;28;20128;-59
2023/12/31 06:02:25;;;;;;;3.45;1.92;;;8.10;53.10;;;;;;5029924;28;20049;-59
2023/12/31 06:04:54;;;;;;;2.97;1.50;;;8.10;52.50;;;;;;5001557;28;20085;-59
2023/12/31 06:07:22;;;;;;;25.85;2.00;;;8.10;53.10;;;;;;5001428;28;20045;-59
2023/12/31 06:09:52;;;;;;;3.25;1.58;;;8.10;52.60;;;;;;4994623;28;20070;-60
2023/12/31 06:12:20;;;;;;;3.85;1.58;;;8.10;52.60;;;;;;4997921;28;20081;-59
2023/12/31 06:14:48;;;;;;;3.33;1.42;;;8.10;52.50;;;;;;5001761;28;20061;-60
2023/12/31 06:17:16;;;;;;;1.83;1.30;;;8.10;52.50;;;;;;4998811;28;20077;-59
2023/12/31 06:19:45;;;;;;;6.10;1.08;;;8.10;52.50;;;;;;4995735;28;20069;-59
2023/12/31 06:22:14;;;;;;;2.88;1.90;;;8.10;52.50;;;;;;4999895;28;20153;-59
2023/12/31 06:24:42;;;;;;;2.15;1.35;;;8.10;52.50;;;;;;4997417;28;20049;-58
2023/12/31 06:27:12;;;;;;;2.83;1.42;;;8.10;52.60;;;;;;5000172;28;20065;-59
2023/12/31 06:29:40;;;;;;;5.78;1.70;;;8.10;52.60;;;;;;4997940;28;20046;-59
2023/12/31 06:32:08;;;;;;;4.13;1.50;;;8.10;52.60;;;;;;4998983;28;20253;-59
2023/12/31 06:34:37;;;;;;;3.10;1.60;;;8.10;52.60;;;;;;4999340;28;20064;-58
2023/12/31 06:37:05;;;;;;;2.80;1.73;;;8.10;52.60;;;;;;4997632;28;20508;-59
2023/12/31 06:39:33;;;;;;;1.27;1.17;;;8.10;52.60;;;;;;5004724;28;20068;-59
2023/12/31 06:42:01;;;;;;;2.05;1.40;;;8.10;52.60;;;;;;4989640;28;20688;-58
2023/12/31 06:44:31;;;;;;;0.90;0.90;;;8.10;52.60;;;;;;4999188;28;20066;-58
2023/12/31 06:46:59;;;;;;;1.38;1.27;;;8.10;52.60;;;;;;4993977;28;20069;-58
2023/12/31 06:49:27;;;;;;;2.60;1.40;;;8.00;52.50;;;;;;5000038;28;20496;-59
2023/12/31 06:51:55;;;;;;;1.73;1.45;;;8.00;52.60;;;;;;4991688;28;20060;-59
2023/12/31 06:54:23;;;;;;;1.45;1.35;;;8.00;52.60;;;;;;4997253;28;20066;-58
2023/12/31 06:56:52;;;;;;;1.77;1.35;;;8.00;52.50;;;;;;4999125;28;20058;-59
2023/12/31 06:59:20;;;;;;;5.20;2.03;;;8.00;52.50;;;;;;4999687;28;20096;-59
2023/12/31 07:01:50;;;;;;;2.78;1.23;;;8.00;52.60;;;;;;4997370;28;20057;-59
2023/12/31 07:04:18;;;;;;;1.63;1.30;;;8.00;52.70;;;;;;5000353;28;20415;-59
2023/12/31 07:06:46;;;;;;;2.72;1.50;;;8.00;53.40;;;;;;4994828;28;20052;-59
2023/12/31 07:09:14;;;;;;;2.65;1.10;;;8.00;52.70;;;;;;5001068;28;20095;-60
2023/12/31 07:11:43;;;;;;;1.20;1.08;;;8.00;52.70;;;;;;4999633;28;20386;-60
2023/12/31 07:14:11;;;;;;;1.75;0.98;;;8.10;52.80;;;;;;4993937;28;20166;-58
2023/12/31 07:16:39;;;;;;;1.02;0.90;;;8.10;52.80;;;;;;4998575;28;20058;-58
2023/12/31 07:19:10;;;;;;;2.67;1.58;;;8.10;52.90;;;;;;4999315;28;20416;-59
2023/12/31 07:21:38;;;;;;;1.38;1.27;;;8.10;52.80;;;;;;4994412;28;20061;-58
2023/12/31 07:24:06;;;;;;;2.58;1.42;;;8.20;52.90;;;;;;4992760;28;20500;-59
2023/12/31 07:26:34;;;;;;;1.85;1.40;;;8.20;52.80;;;;;;4994030;28;20058;-58
2023/12/31 07:29:03;;;;;;;4.30;1.48;;;8.20;52.70;;;;;;5004017;28;20058;-58
2023/12/31 07:31:38;;;;;;;1.85;1.50;;;8.30;52.70;;;;;;4999176;28;20089;-59
2023/12/31 07:34:09;;;;;;;2.45;1.65;;;8.30;52.70;;;;;;4990073;28;20073;-59
2023/12/31 07:36:37;;;;;;;3.92;1.40;;;8.40;52.70;;;;;;4999118;28;20135;-59
2023/12/31 07:39:06;;;;;;;2.55;1.42;;;8.50;52.70;;;;;;4996669;28;20050;-59
2023/12/31 07:41:34;;;;;;;2.38;1.27;;;8.60;52.70;;;;;;4994236;28;20068;-59
2023/12/31 07:44:03;;;;;;;2.22;1.30;;;8.70;53.30;;;;;;4992296;28;20487;-57
2023/12/31 07:46:31;;;;;;;1.65;1.30;;;8.80;53.20;;;;;;4989956;28;20054;-61
2023/12/31 07:48:59;;;;;;;2.47;1.58;;;8.90;52.50;;;;;;4997910;28;20057;-59
2023/12/31 07:51:29;;;;;;;2.42;1.33;;;9.00;52.50;;;;;;4994241;28;20069;-59
2023/12/31 07:53:57;;;;;;;1.70;1.55;;;9.10;52.50;;;;;;4985312;28;20049;-59
2023/12/31 07:56:25;;;;;;;3.63;1.58;;;9.20;52.40;;;;;;4996497;28;20069;-59
2023/12/31 07:58:55;;;;;;;1.52;1.20;;;9.30;52.30;;;;;;4993036;28;20573;-59
2023/12/31 08:01:23;;;;;;;2.40;1.27;;;9.50;52.30;;;;;;4983146;28;20062;-61
2023/12/31 08:03:52;;;;;;;2.15;1.80;;;9.60;52.10;;;;;;4986516;28;20530;-59
2023/12/31 08:06:21;;;;;;;1.70;1.50;;;9.70;52.10;;;;;;4993535;28;20062;-59
2023/12/31 08:08:50;;;;;;;10.98;1.85;;;9.80;52.00;;;;;;4989331;28;20050;-59
2023/12/31 08:11:20;;;;;;;2.92;1.48;;;9.90;51.90;;;;;;4999528;28;20068;-61
2023/12/31 08:13:51;;;;;;;2.13;1.67;;;10.00;52.00;;;;;;4994570;28;20085;-58
2023/12/31 08:16:19;;;;;;;15.63;1.80;;;10.20;52.00;;;;;;4994303;28;20057;-58
2023/12/31 08:18:48;;;;;;;1.63;1.20;;;10.30;51.80;;;;;;4995718;28;20107;-59
2023/12/31 08:21:16;;;;;;;3.75;1.30;;;10.40;51.60;;;;;;5002355;28;20484;-59
2023/12/31 08:23:44;;;;;;;6.55;1.60;;;10.50;51.50;;;;;;5000769;28;20074;-58
2023/12/31 08:26:16;;;;;;;2.38;1.58;;;10.70;51.50;;;;;;4996492;28;20058;-59
2023/12/31 08:28:45;;;;;;;1.80;1.35;;;10.80;51.40;;;;;;4992560;28;20081;-58
2023/12/31 08:31:14;;;;;;;1.83;1.05;;;10.80;51.20;;;;;;4996020;28;20057;-60
2023/12/31 08:33:42;;;;;;;0.90;0.90;;;10.90;51.20;;;;;;4992099;28;20049;-59
2023/12/31 08:36:11;;;;;;;1.77;1.13;;;10.90;51.10;;;;;;4988298;28;22155;-59
2023/12/31 08:38:39;;;;;;;1.98;1.33;;;10.90;51.10;;;;;;4992194;28;20045;-60
2023/12/31 08:41:08;;;;;;;2.33;1.20;;;11.00;51.70;;;;;;4989694;28;20066;-60
2023/12/31 08:43:37;;;;;;;2.45;1.48;;;11.00;51.10;;;;;;4989921;28;20120;-57
2023/12/31 08:46:08;;;;;;;4.10;1.77;;;11.10;51.70;;;;;;4988804;28;20496;-58
2023/12/31 08:48:40;;;;;;;10.15;2.38;;;11.20;51.70;;;;;;4996048;28;20049;-60
2023/12/31 08:51:08;;;;;;;6.38;2.38;;;11.30;51.00;;;;;;4997365;28;20049;-58
2023/12/31 08:53:37;;;;;;;6.25;2.92;;;11.30;50.80;;;;;;4995681;28;20452;-57
2023/12/31 08:56:06;;;;;;;4.43;1.98;;;11.30;50.70;;;;;;4983307;28;20050;-56
2023/12/31 08:58:34;;;;;;;2.15;1.40;;;11.30;50.70;;;;;;4995712;28;20112;-58
2023/12/31 09:01:05;;;;;;;4.72;2.40;;;11.40;50.70;;;;;;4994129;28;20129;-58
2023/12/31 09:03:33;;;;;;;5.50;2.00;;;11.50;50.70;;;;;;4988936;28;20069;-58
2023/12/31 09:06:02;;;;;;;2.22;1.70;;;11.60;50.70;;;;;;4987255;28;20089;-58
2023/12/31 09:08:30;;;;;;;5.50;2.20;;;11.70;50.70;;;;;;4990096;28;20061;-58
2023/12/31 09:10:59;;;;;;;2.53;1.98;;;11.80;50.50;;;;;;4993489;28;20058;-59
2023/12/31 09:13:28;;;;;;;6.15;2.63;;;11.90;50.30;;;;;;4993167;28;21861;-60
2023/12/31 09:16:00;;;;;;;3.72;1.63;;;12.10;50.40;;;;;;4989113;28;20428;-58
2023/12/31 09:18:33;;;;;;;2.00;1.30;;;12.10;50.20;;;;;;4996048;28;20184;-58
2023/12/31 09:21:06;;;;;;;3.03;1.30;;;12.30;50.20;;;;;;5005532;28;20499;-58
2023/12/31 09:23:36;;;;;;;2.72;1.70;;;12.40;50.10;;;;;;4991180;28;20457;-58
2023/12/31 09:26:05;;;;;;;3.20;1.60;;;12.60;50.00;;;;;;4991892;28;20069;-58
2023/12/31 09:28:36;;;;;;;1.23;1.13;;;12.70;49.90;;;;;;4993577;28;20396;-62
2023/12/31 09:31:07;;;;;;;3.50;1.30;;;12.80;49.80;;;;;;4990533;28;20065;-64
2023/12/31 09:33:37;;;;;;;1.50;1.23;;;12.90;49.60;;;;;;4996179;28;20081;-61
2023/12/31 09:36:06;;;;;;;4.18;1.70;;;13.00;49.40;;;;;;4989011;28;20080;-61
2023/12/31 09:38:34;;;;;;;2.72;1.25;;;13.00;49.30;;;;;;4995965;28;20062;-61
2023/12/31 09:41:05;;;;;;;1.45;1.00;;;13.00;49.20;;;;;;4998744;28;20061;-61
2023/12/31 09:43:35;;;;;;;9.80;1.48;;;13.10;49.00;;;;;;4993122;28;20101;-64
2023/12/31 09:46:06;;;;;;;2.08;1.20;;;13.10;48.80;;;;;;4979503;28;20058;-63
2023/12/31 09:48:37;;;;;;;0.90;0.90;;;13.10;48.80;;;;;;4990913;28;20049;-63
2023/12/31 09:51:06;;;;;;;2.72;1.13;;;13.20;48.70;;;;;;4999105;28;20085;-64
2023/12/31 09:53:36;;;;;;;1.83;1.10;;;13.30;48.70;;;;;;4996094;28;21178;-65
2023/12/31 09:56:06;;;;;;;4.38;1.40;;;13.40;49.40;;;;;;4985928;28;20097;-64
2023/12/31 09:58:36;;;;;;;2.03;1.20;;;13.60;48.70;;;;;;4998446;28;20096;-65
2023/12/31 10:01:05;;;;;;;1.90;1.13;;;13.70;48.40;;;;;;5002746;28;20656;-66
2023/12/31 10:03:34;;;;;;;3.35;1.77;;;13.90;48.40;;;;;;4996826;28;20049;-64
2023/12/31 10:06:06;;;;;;;4.70;1.90;;;14.20;48.40;;;;;;4991561;28;20062;-65
2023/12/31 10:08:35;;;;;;;2.03;1.27;;;14.50;48.10;;;;;;4998912;28;20065;-64
2023/12/31 10:11:04;;;;;;;3.38;1.42;;;14.90;48.00;;;;;;4989822;28;20062;-64
2023/12/31 10:13:33;;;;;;;4.93;1.17;;;15.20;47.50;;;;;;4998666;28;20112;-64
2023/12/31 10:16:12;;;;;;;2.25;1.58;;;15.50;47.30;;;;;;4989173;28;20484;-63
2023/12/31 10:18:41;;;;;;;6.15;1.95;;;15.80;46.80;;;;;;4996450;28;20056;-64
2023/12/31 10:21:12;;;;;;;4.28;1.25;;;16.00;46.80;;;;;;4993437;28;20062;-63
2023/12/31 10:23:41;;;;;;;1.98;1.42;;;16.20;46.50;;;;;;4996365;28;20068;-63
2023/12/31 10:26:09;;;;;;;12.85;1.65;;;16.60;46.40;;;;;;4985656;28;20046;-63
2023/12/31 10:28:39;;;;;;;2.92;1.50;;;16.80;46.10;;;;;;4993933;28;20065;-61
2023/12/31 10:31:07;;;;;;;3.95;2.10;;;17.00;45.70;;;;;;5000322;28;20062;-62
2023/12/31 10:33:37;;;;;;;8.88;2.15;;;17.20;45.30;;;;;;4996985;28;20060;-62
2023/12/31 10:36:05;;;;;;;3.42;1.35;;;17.20;45.10;;;;;;4991334;28;20145;-63
2023/12/31 10:38:46;;;;;;;3.50;1.35;;;17.10;45.00;;;;;;5001665;28;20073;-60
2023/12/31 10:41:17;;;;;;;1.80;1.15;;;16.90;44.90;;;;;;4997931;28;20081;-61
2023/12/31 10:43:46;;;;;;;2.83;0.85;;;16.70;44.90;;;;;;4994844;28;20074;-61
2023/12/31 10:46:18;;;;;;;4.25;1.15;;;16.30;44.90;;;;;;4994724;28;20060;-65
2023/12/31 10:48:50;;;;;;;0.98;0.95;;;16.00;45.10;;;;;;4994570;28;20565;-64
2023/12/31 10:51:24;;;;;;;3.30;1.13;;;15.90;46.10;;;;;;4999065;28;20053;-64
2023/12/31 10:53:58;;;;;;;1.80;1.10;;;15.80;45.40;;;;;;4990837;28;20095;-64
2023/12/31 10:56:26;;;;;;;2.72;1.20;;;15.60;45.40;;;;;;4993204;28;20050;-65
2023/12/31 10:58:55;;;;;;;2.75;1.40;;;15.50;45.40;;;;;;4996701;28;20058;-65
2023/12/31 11:01:25;;;;;;;3.33;1.30;;;15.40;45.70;;;;;;4995861;28;20069;-64
2023/12/31 11:03:55;;;;;;;1.83;0.95;;;15.40;45.70;;;;;;4987616;28;20054;-65
2023/12/31 11:06:24;;;;;;;1.50;1.10;;;15.40;45.80;;;;;;5023036;28;20153;-64
2023/12/31 11:08:54;;;;;;;1.63;0.85;;;15.30;45.70;;;;;;4991899;28;20054;-63
2023/12/31 11:11:24;;;;;;;8.48;1.60;;;15.20;45.40;;;;;;4992068;28;20052;-63
2023/12/31 11:13:57;;;;;;;1.88;1.20;;;15.20;45.70;;;;;;4985553;28;20062;-63
2023/12/31 11:16:41;;;;;;;2.65;1.15;;;15.10;45.50;;;;;;4993989;28;20058;-61
2023/12/31 11:19:24;;;;;;;5.38;1.50;;;15.00;45.80;;;;;;4973249;28;20062;-59
2023/12/31 11:22:05;;;;;;;2.17;1.38;;;14.90;45.70;;;;;;4985114;28;20588;-61
2023/12/31 11:24:35;;;;;;;2.03;1.58;;;14.80;45.80;;;;;;4984587;28;20803;-63
2023/12/31 11:27:07;;;;;;;3.20;1.50;;;14.80;46.20;;;;;;4993397;28;20077;-60
2023/12/31 11:29:35;;;;;;;3.70;1.67;;;14.80;46.30;;;;;;4993784;28;20064;-61
2023/12/31 11:32:05;;;;;;;5.15;2.42;;;14.90;46.20;;;;;;4986572;28;20523;-59
2023/12/31 11:34:37;;;;;;;5.28;1.70;;;15.00;46.30;;;;;;4994465;28;20107;-60
2023/12/31 11:37:07;;;;;;;4.43;1.25;;;15.20;46.20;;;;;;4990634;28;20155;-60
2023/12/31 11:39:37;;;;;;;3.00;1.58;;;15.40;46.00;;;;;;4992952;28;20057;-60
2023/12/31 11:42:10;;;;;;;10.05;1.63;;;15.60;45.80;;;;;;4992973;28;20477;-62
2023/12/31 11:44:40;;;;;;;4.80;1.65;;;15.70;45.50;;;;;;4990099;28;20156;-64
2023/12/31 11:47:14;;;;;;;1.65;1.33;;;15.80;45.40;;;;;;4990356;28;20058;-61
2023/12/31 11:49:47;;;;;;;5.07;1.83;;;15.90;45.40;;;;;;4986573;28;20148;-61
2023/12/31 11:52:15;;;;;;;4.28;1.73;;;16.00;45.90;;;;;;4990328;28;20645;-59
2023/12/31 11:54:45;;;;;;;4.60;1.45;;;16.10;45.10;;;;;;4991325;28;20077;-58
2023/12/31 11:57:17;;;;;;;3.63;1.55;;;16.10;45.00;;;;;;4992964;28;20064;-61
2023/12/31 11:59:45;;;;;;;3.38;1.63;;;16.10;44.90;;;;;;4992891;28;20053;-63
2023/12/31 12:02:15;;;;;;;3.15;1.58;;;16.10;44.80;;;;;;4981481;28;20107;-60
2023/12/31 12:04:43;;;;;;;2.67;1.70;;;16.10;44.70;;;;;;4990441;28;20045;-59
2023/12/31 12:07:12;;;;;;;3.28;1.58;;;16.10;44.70;;;;;;4985211;28;20061;-60
2023/12/31 12:09:40;;;;;;;2.97;1.33;;;16.10;44.70;;;;;;4994733;28;20815;-62
2023/12/31 12:12:10;;;;;;;1.65;1.02;;;16.20;44.70;;;;;;4985162;28;20486;-60
2023/12/31 12:14:38;;;;;;;5.47;1.50;;;16.20;44.40;;;;;;4988345;28;20070;-59
2023/12/31 12:17:07;;;;;;;7.38;1.80;;;16.20;44.40;;;;;;4991932;28;20060;-60
2023/12/31 12:19:35;;;;;;;2.30;1.70;;;16.20;44.40;;;;;;4991900;28;20141;-60
2023/12/31 12:22:04;;;;;;;3.35;1.52;;;16.20;45.10;;;;;;4982540;28;20065;-60
2023/12/31 12:24:33;;;;;;;4.13;1.60;;;16.40;44.50;;;;;;4992371;28;20053;-59
2023/12/31 12:27:01;;;;;;;4.95;1.40;;;16.40;44.20;;;;;;4985585;28;20073;-61
2023/12/31 12:29:37;;;;;;;3.83;1.30;;;16.50;44.20;;;;;;4989707;28;20747;-60
2023/12/31 12:32:06;;;;;;;3.28;1.67;;;16.50;44.00;;;;;;4981162;28;20443;-60
2023/12/31 12:34:36;;;;;;;6.88;1.35;;;16.40;43.90;;;;;;4996277;28;20049;-61
2023/12/31 12:37:04;;;;;;;3.72;1.70;;;16.40;44.00;;;;;;4986971;28;20626;-59
2023/12/31 12:39:33;;;;;;;5.45;1.90;;;16.30;43.90;;;;;;4994164;28;20062;-60
2023/12/31 12:42:01;;;;;;;3.40;1.42;;;16.30;43.90;;;;;;4981313;28;20061;-63
2023/12/31 12:44:30;;;;;;;3.38;1.70;;;16.30;44.00;;;;;;4992890;28;20049;-59
2023/12/31 12:47:03;;;;;;;2.63;1.38;;;16.20;43.60;;;;;;4983164;28;20053;-62
2023/12/31 12:49:31;;;;;;;10.32;1.48;;;16.10;43.70;;;;;;4988355;28;20140;-55
2023/12/31 12:52:00;;;;;;;1.90;1.50;;;16.00;43.80;;;;;;4982822;28;20300;-59
2023/12/31 12:54:28;;;;;;;1.67;1.27;;;16.00;43.80;;;;;;4989063;28;20436;-59
2023/12/31 12:56:56;;;;;;;2.22;1.50;;;15.90;43.70;;;;;;4986384;28;20123;-61
2023/12/31 12:59:25;;;;;;;6.65;1.90;;;15.90;43.80;;;;;;4987339;28;20188;-60
2023/12/31 13:01:53;;;;;;;4.00;2.08;;;15.90;44.00;;;;;;4980286;28;20061;-61
2023/12/31 13:04:23;;;;;;;3.58;1.70;;;16.00;44.10;;;;;;4983995;28;20502;-60